createdAt,value
2023-01-19T00:00:02.504Z,6.5
2023-01-19T00:02:03.861Z,7.5
2023-01-19T00:04:03.193Z,7.1
2023-01-19T00:06:06.561Z,6.9
2023-01-19T00:08:11.980Z,6.4
2023-01-19T00:10:02.962Z,6.4
2023-01-19T00:12:02.344Z,5.1
2023-01-19T00:14:03.493Z,5.7
2023-01-19T00:16:02.496Z,6.9
2023-01-19T00:18:02.616Z,8.9
2023-01-19T00:20:03.584Z,7.0
2023-01-19T00:22:02.495Z,4.9
2023-01-19T00:24:03.012Z,9.4
2023-01-19T00:26:02.544Z,6.6
2023-01-19T00:28:02.440Z,6.9
2023-01-19T00:30:03.256Z,6.2
2023-01-19T00:32:03.471Z,6.1
2023-01-19T00:34:03.315Z,6.2
2023-01-19T00:36:02.379Z,6.0
2023-01-19T00:38:03.407Z,5.9
2023-01-19T00:40:02.428Z,10.4
2023-01-19T00:42:12.027Z,6.0
2023-01-19T00:44:02.322Z,5.2
2023-01-19T00:46:02.459Z,7.2
2023-01-19T00:48:02.988Z,8.6
2023-01-19T00:50:03.127Z,6.0
2023-01-19T00:52:02.444Z,6.0
2023-01-19T00:54:04.542Z,7.3
2023-01-19T00:56:02.360Z,7.3
2023-01-19T00:58:02.989Z,8.4
2023-01-19T01:00:05.994Z,7.8
2023-01-19T01:02:02.625Z,11.4
2023-01-19T01:04:02.334Z,5.8
2023-01-19T01:06:03.509Z,6.1
2023-01-19T01:08:02.414Z,7.1
2023-01-19T01:10:02.505Z,5.4
2023-01-19T01:12:02.580Z,5.0
2023-01-19T01:14:02.324Z,4.7
2023-01-19T01:16:02.955Z,4.0
2023-01-19T01:18:02.625Z,5.2
2023-01-19T01:20:04.377Z,3.9
2023-01-19T01:22:02.415Z,7.4
2023-01-19T01:24:03.383Z,3.0
2023-01-19T01:26:02.436Z,6.9
2023-01-19T01:28:03.073Z,5.5
2023-01-19T01:30:02.584Z,3.8
2023-01-19T01:32:02.541Z,4.8
2023-01-19T01:34:02.994Z,6.3
2023-01-19T01:36:02.616Z,5.7
2023-01-19T01:38:03.423Z,5.6
2023-01-19T01:40:03.050Z,7.4
2023-01-19T01:42:03.161Z,6.2
2023-01-19T01:44:07.768Z,5.5
2023-01-19T01:46:03.210Z,7.6
2023-01-19T01:48:10.444Z,9.7
2023-01-19T01:50:07.240Z,7.7
2023-01-19T01:52:03.848Z,8.0
2023-01-19T01:54:10.834Z,9.5
2023-01-19T01:56:06.663Z,8.7
2023-01-19T01:58:05.310Z,6.8
2023-01-19T02:00:04.700Z,6.6
2023-01-19T02:02:16.022Z,7.3
2023-01-19T02:04:02.591Z,8.0
2023-01-19T02:06:06.848Z,9.2
2023-01-19T02:08:16.879Z,12.2
2023-01-19T02:10:11.986Z,7.0
2023-01-19T02:12:11.819Z,9.2
2023-01-19T02:14:06.065Z,6.7
2023-01-19T02:16:06.331Z,5.0
2023-01-19T02:18:02.631Z,6.0
2023-01-19T02:20:03.647Z,7.6
2023-01-19T02:22:08.268Z,5.6
2023-01-19T02:24:03.047Z,5.3
2023-01-19T02:26:03.240Z,5.2
2023-01-19T02:28:03.962Z,4.2
2023-01-19T02:30:03.392Z,3.8
2023-01-19T02:32:02.792Z,3.8
2023-01-19T02:34:04.001Z,3.2
2023-01-19T02:36:03.291Z,3.4
2023-01-19T02:38:05.198Z,5.1
2023-01-19T02:40:04.676Z,6.2
2023-01-19T02:42:06.987Z,5.0
2023-01-19T02:44:04.444Z,4.4
2023-01-19T02:46:03.275Z,4.5
2023-01-19T02:48:03.351Z,6.0
2023-01-19T02:50:02.303Z,8.5
2023-01-19T02:52:03.853Z,8.2
2023-01-19T02:54:15.912Z,10.2
2023-01-19T02:56:17.257Z,9.8
2023-01-19T02:58:11.921Z,10.5
2023-01-19T03:00:17.848Z,11.2
2023-01-19T03:02:10.825Z,9.4
2023-01-19T03:04:10.988Z,9.1
2023-01-19T03:06:09.231Z,8.3
2023-01-19T03:08:14.125Z,8.4
2023-01-19T03:10:07.262Z,10.1
2023-01-19T03:12:09.635Z,12.1
2023-01-19T03:14:09.197Z,8.5
2023-01-19T03:16:12.023Z,10.2
2023-01-19T03:18:06.465Z,11.7
2023-01-19T03:20:05.839Z,8.7
2023-01-19T03:22:06.957Z,6.6
2023-01-19T03:24:06.468Z,6.7
2023-01-19T03:26:05.007Z,5.2
2023-01-19T03:28:04.617Z,6.4
2023-01-19T03:30:09.711Z,6.8
2023-01-19T03:32:06.990Z,8.4
2023-01-19T03:34:06.551Z,7.9
2023-01-19T03:36:08.909Z,7.8
2023-01-19T03:38:08.337Z,5.0
2023-01-19T03:40:02.984Z,7.0
2023-01-19T03:42:07.639Z,6.7
2023-01-19T03:44:05.161Z,5.7
2023-01-19T03:46:04.595Z,6.4
2023-01-19T03:48:03.468Z,9.4
2023-01-19T03:50:06.512Z,8.6
2023-01-19T03:52:03.056Z,9.6
2023-01-19T03:54:02.719Z,12.4
2023-01-19T03:56:03.488Z,8.0
2023-01-19T03:58:02.466Z,9.0
2023-01-19T04:00:03.422Z,10.0
2023-01-19T04:02:02.630Z,7.0
2023-01-19T04:04:02.355Z,7.9
2023-01-19T04:06:02.901Z,6.9
2023-01-19T04:08:02.392Z,4.8
2023-01-19T04:10:02.340Z,4.6
2023-01-19T04:12:03.763Z,7.1
2023-01-19T04:14:02.357Z,8.1
2023-01-19T04:16:04.165Z,8.4
2023-01-19T04:18:03.261Z,12.5
2023-01-19T04:20:03.021Z,12.7
2023-01-19T04:22:02.428Z,11.1
2023-01-19T04:24:02.455Z,7.5
2023-01-19T04:26:04.371Z,9.0
2023-01-19T04:28:02.448Z,6.7
2023-01-19T04:30:03.926Z,9.6
2023-01-19T04:32:02.311Z,11.5
2023-01-19T04:34:02.686Z,9.2
2023-01-19T04:36:03.910Z,13.8
2023-01-19T04:38:02.342Z,15.5
2023-01-19T04:40:02.352Z,10.0
2023-01-19T04:42:02.736Z,19.2
2023-01-19T04:44:02.383Z,57.6
2023-01-19T04:46:02.590Z,57.7
2023-01-19T04:48:04.661Z,14.4
2023-01-19T04:50:02.626Z,38.9
2023-01-19T04:52:02.962Z,20.0
2023-01-19T04:54:03.711Z,54.5
2023-01-19T04:56:02.332Z,15.4
2023-01-19T04:58:02.566Z,11.0
2023-01-19T05:00:03.866Z,6.9
2023-01-19T05:02:02.972Z,9.1
2023-01-19T05:04:04.706Z,16.9
2023-01-19T05:06:02.575Z,8.6
2023-01-19T05:08:02.374Z,37.5
2023-01-19T05:10:02.535Z,16.0
2023-01-19T05:12:02.411Z,16.0
2023-01-19T05:14:02.388Z,13.9
2023-01-19T05:16:03.485Z,10.3
2023-01-19T05:18:03.394Z,12.3
2023-01-19T05:20:03.326Z,13.3
2023-01-19T05:22:03.736Z,14.0
2023-01-19T05:24:02.674Z,12.4
2023-01-19T05:26:04.709Z,14.0
2023-01-19T05:28:03.610Z,14.5
2023-01-19T05:30:04.669Z,14.1
2023-01-19T05:32:02.470Z,13.5
2023-01-19T05:34:02.441Z,14.9
2023-01-19T05:36:03.877Z,13.6
2023-01-19T05:38:02.318Z,14.3
2023-01-19T05:40:02.443Z,13.4
2023-01-19T05:42:02.820Z,14.6
2023-01-19T05:44:02.467Z,14.4
2023-01-19T05:46:04.902Z,13.5
2023-01-19T05:48:02.401Z,14.3
2023-01-19T05:50:02.381Z,13.1
2023-01-19T05:52:02.354Z,13.2
2023-01-19T05:54:03.794Z,12.9
2023-01-19T05:56:05.165Z,10.2
2023-01-19T05:58:02.904Z,9.0
2023-01-19T06:00:02.503Z,8.1
2023-01-19T06:02:02.424Z,7.8
2023-01-19T06:04:02.345Z,7.8
2023-01-19T06:06:04.395Z,7.1
2023-01-19T06:08:02.555Z,8.3
2023-01-19T06:10:02.306Z,6.4
2023-01-19T06:12:02.483Z,6.8
2023-01-19T06:14:02.444Z,10.4
2023-01-19T06:16:03.644Z,12.1
2023-01-19T06:18:02.631Z,12.8
2023-01-19T06:20:02.771Z,13.8
2023-01-19T06:22:02.893Z,12.1
2023-01-19T06:24:03.477Z,15.6
2023-01-19T06:26:03.637Z,14.7
2023-01-19T06:28:03.209Z,14.2
2023-01-19T06:30:02.909Z,14.5
2023-01-19T06:32:03.211Z,14.0
2023-01-19T06:34:03.847Z,14.0
2023-01-19T06:36:02.507Z,13.1
2023-01-19T06:38:02.364Z,14.1
2023-01-19T06:40:02.609Z,13.8
2023-01-19T06:42:02.740Z,13.6
2023-01-19T06:44:03.333Z,14.3
2023-01-19T06:46:03.096Z,12.3
2023-01-19T06:48:03.851Z,12.7
2023-01-19T06:50:03.036Z,12.8
2023-01-19T06:52:02.965Z,13.2
2023-01-19T06:54:02.715Z,13.0
2023-01-19T06:56:04.273Z,12.5
2023-01-19T06:58:03.078Z,13.1
2023-01-19T07:00:07.493Z,12.3
2023-01-19T07:02:26.306Z,11.8
2023-01-19T07:04:02.546Z,13.8
2023-01-19T07:06:03.870Z,12.8
2023-01-19T07:08:02.945Z,12.7
2023-01-19T07:10:02.949Z,13.0
2023-01-19T07:12:02.442Z,13.0
2023-01-19T07:14:03.570Z,11.8
2023-01-19T07:16:07.355Z,11.4
2023-01-19T07:18:07.218Z,11.3
2023-01-19T07:20:02.685Z,18.2
2023-01-19T07:22:03.117Z,16.7
2023-01-19T07:24:03.284Z,108.1
2023-01-19T07:26:02.368Z,92.9
2023-01-19T07:28:04.085Z,122.5
2023-01-19T07:30:04.200Z,114.0
2023-01-19T07:32:02.335Z,178.5
2023-01-19T07:34:02.343Z,105.2
2023-01-19T07:36:02.356Z,148.8
2023-01-19T07:38:02.358Z,51.9
2023-01-19T07:40:02.534Z,134.7
2023-01-19T07:42:02.555Z,88.2
2023-01-19T07:44:02.310Z,50.2
2023-01-19T07:46:06.214Z,43.5
2023-01-19T07:48:03.039Z,30.8
2023-01-19T07:50:02.995Z,13.9
2023-01-19T07:52:02.444Z,13.7
2023-01-19T07:54:02.570Z,16.1
2023-01-19T07:56:02.497Z,27.4
2023-01-19T07:58:06.186Z,49.5
2023-01-19T08:00:03.656Z,20.4
2023-01-19T08:02:02.595Z,23.7
2023-01-19T08:04:03.971Z,30.6
2023-01-19T08:06:04.717Z,23.6
2023-01-19T08:08:03.538Z,25.7
2023-01-19T08:10:02.435Z,24.3
2023-01-19T08:12:02.381Z,65.1
2023-01-19T08:14:04.524Z,48.2
2023-01-19T08:16:03.005Z,38.5
2023-01-19T08:18:05.349Z,18.2
2023-01-19T08:20:03.639Z,14.9
2023-01-19T08:22:02.521Z,25.8
2023-01-19T08:24:03.111Z,15.0
2023-01-19T08:26:02.882Z,17.8
2023-01-19T08:28:03.969Z,14.5
2023-01-19T08:30:02.569Z,14.3
2023-01-19T08:32:02.815Z,13.6
2023-01-19T08:34:02.830Z,14.6
2023-01-19T08:36:02.512Z,24.9
2023-01-19T08:38:03.802Z,14.8
2023-01-19T08:40:03.018Z,53.8
2023-01-19T08:42:02.565Z,23.3
2023-01-19T08:44:02.340Z,44.4
2023-01-19T08:46:03.355Z,43.0
2023-01-19T08:48:03.519Z,51.0
2023-01-19T08:50:02.590Z,22.8
2023-01-19T08:52:02.751Z,18.4
2023-01-19T08:54:02.631Z,82.8
2023-01-19T08:56:03.088Z,29.4
2023-01-19T08:58:04.567Z,14.6
2023-01-19T09:00:02.553Z,14.9
2023-01-19T09:02:02.597Z,13.9
2023-01-19T09:04:02.430Z,24.7
2023-01-19T09:06:06.155Z,19.8
2023-01-19T09:08:04.069Z,13.5
2023-01-19T09:10:02.454Z,13.7
2023-01-19T09:12:02.365Z,16.2
2023-01-19T09:14:05.269Z,51.8
2023-01-19T09:16:03.881Z,14.7
2023-01-19T09:18:04.222Z,14.2
2023-01-19T09:20:04.053Z,14.8
2023-01-19T09:22:03.149Z,75.1
2023-01-19T09:24:02.421Z,44.9
2023-01-19T09:26:05.505Z,82.4
2023-01-19T09:28:02.852Z,110.7
2023-01-19T09:30:04.717Z,146.3
2023-01-19T09:32:03.292Z,104.8
2023-01-19T09:34:02.384Z,104.8
2023-01-19T09:36:02.422Z,103.2
2023-01-19T09:38:02.981Z,59.5
2023-01-19T09:40:02.419Z,14.4
2023-01-19T09:42:12.463Z,118.7
2023-01-19T09:44:03.099Z,118.7
2023-01-19T09:46:05.537Z,155.9
2023-01-19T09:48:07.507Z,30.8
2023-01-19T09:50:07.699Z,90.2
2023-01-19T09:52:03.199Z,15.2
2023-01-19T09:54:11.780Z,54.6
2023-01-19T09:56:02.414Z,139.7
2023-01-19T09:58:04.831Z,72.5
2023-01-19T10:00:11.069Z,127.9
2023-01-19T10:02:15.564Z,132.5
2023-01-19T10:04:19.854Z,132.2
2023-01-19T10:06:06.184Z,132.2
2023-01-19T10:08:14.164Z,95.6
2023-01-19T10:10:11.419Z,154.1
2023-01-19T10:12:08.601Z,139.1
2023-01-19T10:14:06.039Z,96.7
2023-01-19T10:16:14.207Z,160.0
2023-01-19T10:18:14.761Z,72.5
2023-01-19T10:20:11.053Z,72.2
2023-01-19T10:22:13.620Z,65.1
2023-01-19T10:24:06.813Z,42.8
2023-01-19T10:26:08.677Z,55.1
2023-01-19T10:28:03.983Z,20.5
2023-01-19T10:30:03.845Z,62.2
2023-01-19T10:32:07.957Z,80.2
2023-01-19T10:34:02.605Z,21.1
2023-01-19T10:36:04.687Z,81.7
2023-01-19T10:38:03.521Z,128.3
2023-01-19T10:40:19.486Z,183.3
2023-01-19T10:42:06.450Z,103.1
2023-01-19T10:44:05.006Z,105.9
2023-01-19T10:46:06.641Z,84.9
2023-01-19T10:48:07.700Z,163.6
2023-01-19T10:50:21.333Z,78.6
2023-01-19T10:52:05.732Z,92.4
2023-01-19T10:54:04.375Z,84.7
2023-01-19T10:56:14.466Z,72.0
2023-01-19T10:58:02.397Z,141.1
2023-01-19T11:00:05.525Z,146.3
2023-01-19T11:02:14.837Z,128.1
2023-01-19T11:04:20.444Z,68.5
2023-01-19T11:06:20.160Z,42.1
2023-01-19T11:08:21.338Z,80.2
2023-01-19T11:10:20.698Z,106.9
2023-01-19T11:12:02.409Z,41.6
2023-01-19T11:14:09.238Z,67.1
2023-01-19T11:16:08.304Z,47.6
2023-01-19T11:18:04.052Z,43.6
2023-01-19T11:20:03.689Z,25.2
2023-01-19T11:22:16.157Z,28.9
2023-01-19T11:24:05.197Z,18.8
2023-01-19T11:26:05.506Z,15.1
2023-01-19T11:28:04.390Z,14.8
2023-01-19T11:30:14.907Z,15.0
2023-01-19T11:32:11.511Z,14.2
2023-01-19T11:34:05.165Z,13.7
2023-01-19T11:36:05.333Z,14.7
2023-01-19T11:38:16.617Z,14.2
2023-01-19T11:40:05.794Z,14.9
2023-01-19T11:42:04.463Z,15.0
2023-01-19T11:44:14.569Z,15.3
2023-01-19T11:46:03.636Z,15.6
2023-01-19T11:48:05.979Z,14.8
2023-01-19T11:50:11.770Z,15.2
2023-01-19T11:52:06.841Z,14.6
2023-01-19T11:54:07.073Z,14.8
2023-01-19T11:56:06.832Z,18.4
2023-01-19T11:58:04.180Z,15.4
2023-01-19T12:00:14.328Z,14.6
2023-01-19T12:02:11.430Z,15.5
2023-01-19T12:04:07.696Z,15.1
2023-01-19T12:06:07.490Z,15.5
2023-01-19T12:08:07.438Z,15.2
2023-01-19T12:10:15.953Z,15.8
2023-01-19T12:12:06.837Z,14.9
2023-01-19T12:14:02.955Z,15.4
2023-01-19T12:16:08.056Z,15.6
2023-01-19T12:18:05.851Z,14.7
2023-01-19T12:20:13.121Z,15.4
2023-01-19T12:22:04.400Z,15.1
2023-01-19T12:24:12.795Z,15.2
2023-01-19T12:26:22.572Z,14.4
2023-01-19T12:28:03.185Z,14.8
2023-01-19T12:30:03.074Z,14.9
2023-01-19T12:32:20.680Z,14.3
2023-01-19T12:34:22.042Z,15.5
2023-01-19T12:36:05.614Z,15.2
2023-01-19T12:38:21.386Z,14.4
2023-01-19T12:40:06.215Z,15.0
2023-01-19T12:42:14.204Z,15.3
2023-01-19T12:44:16.028Z,14.4
2023-01-19T12:46:12.512Z,13.6
2023-01-19T12:48:04.284Z,14.2
2023-01-19T12:50:13.921Z,14.3
2023-01-19T12:52:21.402Z,15.2
2023-01-19T12:54:07.522Z,13.5
2023-01-19T12:56:05.784Z,15.0
2023-01-19T12:58:05.425Z,15.4
2023-01-19T13:00:06.883Z,15.2
2023-01-19T13:02:21.564Z,16.9
2023-01-19T13:04:08.702Z,17.0
2023-01-19T13:06:02.388Z,17.0
2023-01-19T13:08:17.375Z,17.1
2023-01-19T13:10:21.386Z,16.5
2023-01-19T13:12:20.460Z,15.7
2023-01-19T13:14:21.527Z,15.8
2023-01-19T13:16:21.999Z,14.3
2023-01-19T13:18:04.241Z,15.6
2023-01-19T13:20:15.121Z,15.0
2023-01-19T13:22:21.395Z,15.4
2023-01-19T13:24:04.353Z,14.3
2023-01-19T13:26:05.843Z,14.1
2023-01-19T13:28:08.775Z,14.6
2023-01-19T13:30:03.219Z,15.6
2023-01-19T13:32:05.640Z,14.3
2023-01-19T13:34:04.186Z,15.8
2023-01-19T13:36:03.182Z,15.0
2023-01-19T13:38:03.412Z,15.2
2023-01-19T13:40:03.645Z,16.2
2023-01-19T13:42:07.217Z,15.6
2023-01-19T13:44:07.922Z,15.5
2023-01-19T13:46:03.828Z,15.5
2023-01-19T13:48:07.398Z,15.0
2023-01-19T13:50:02.760Z,15.0
2023-01-19T13:52:11.573Z,15.1
2023-01-19T13:54:02.505Z,15.1
2023-01-19T13:56:21.413Z,16.8
2023-01-19T13:58:02.384Z,16.8
2023-01-19T14:00:16.362Z,15.5
2023-01-19T14:02:13.711Z,16.0
2023-01-19T14:04:02.368Z,16.0
2023-01-19T14:06:02.917Z,14.5
2023-01-19T14:08:06.260Z,15.2
2023-01-19T14:10:02.980Z,15.7
2023-01-19T14:12:13.850Z,14.7
2023-01-19T14:14:02.898Z,14.7
2023-01-19T14:16:08.283Z,14.3
2023-01-19T14:18:21.438Z,14.3
2023-01-19T14:20:02.500Z,14.3
2023-01-19T14:22:05.267Z,14.3
2023-01-19T14:24:08.962Z,14.1
2023-01-19T14:26:02.398Z,14.4
2023-01-19T14:28:21.354Z,14.4
2023-01-19T14:30:20.638Z,14.4
2023-01-19T14:32:13.606Z,13.6
2023-01-19T14:34:02.340Z,15.4
2023-01-19T14:36:19.483Z,15.0
2023-01-19T14:38:04.347Z,14.6
2023-01-19T14:40:14.447Z,15.0
2023-01-19T14:42:05.069Z,14.7
2023-01-19T14:44:03.038Z,14.3
2023-01-19T14:46:03.123Z,14.0
2023-01-19T14:48:06.451Z,15.1
2023-01-19T14:50:08.381Z,14.0
2023-01-19T14:52:04.697Z,13.8
2023-01-19T14:54:03.819Z,13.9
2023-01-19T14:56:05.383Z,13.9
2023-01-19T14:58:02.886Z,14.4
2023-01-19T15:00:17.258Z,14.8
2023-01-19T15:02:02.513Z,14.5
2023-01-19T15:04:03.121Z,14.4
2023-01-19T15:06:04.350Z,14.8
2023-01-19T15:08:04.355Z,14.8
2023-01-19T15:10:03.894Z,14.9
2023-01-19T15:12:02.867Z,14.3
2023-01-19T15:14:02.967Z,14.0
2023-01-19T15:16:03.411Z,15.2
2023-01-19T15:18:04.815Z,14.3
2023-01-19T15:20:02.363Z,14.3
2023-01-19T15:22:02.481Z,15.1
2023-01-19T15:24:02.781Z,13.9
2023-01-19T15:26:04.958Z,14.4
2023-01-19T15:28:09.346Z,14.2
2023-01-19T15:30:02.435Z,14.3
2023-01-19T15:32:03.476Z,14.1
2023-01-19T15:34:02.497Z,14.1
2023-01-19T15:36:02.797Z,14.0
2023-01-19T15:38:02.366Z,14.0
2023-01-19T15:40:02.339Z,14.1
2023-01-19T15:42:03.200Z,15.1
2023-01-19T15:44:04.582Z,16.2
2023-01-19T15:46:03.268Z,15.6
2023-01-19T15:48:05.495Z,15.8
2023-01-19T15:50:02.320Z,15.2
2023-01-19T15:52:02.909Z,15.1
2023-01-19T15:54:02.460Z,14.8
2023-01-19T15:56:02.348Z,15.0
2023-01-19T15:58:03.137Z,15.4
2023-01-19T16:00:02.801Z,16.0
2023-01-19T16:02:03.130Z,15.9
2023-01-19T16:04:04.695Z,16.0
2023-01-19T16:06:02.331Z,15.3
2023-01-19T16:08:02.362Z,15.3
2023-01-19T16:10:05.411Z,15.5
2023-01-19T16:12:02.573Z,14.7
2023-01-19T16:14:02.638Z,16.3
2023-01-19T16:16:04.014Z,15.8
2023-01-19T16:18:02.942Z,15.2
2023-01-19T16:20:02.401Z,17.1
2023-01-19T16:22:05.206Z,22.3
2023-01-19T16:24:02.594Z,14.5
2023-01-19T16:26:07.303Z,16.6
2023-01-19T16:28:02.350Z,15.7
2023-01-19T16:30:04.614Z,14.9
2023-01-19T16:32:02.956Z,15.6
2023-01-19T16:34:03.208Z,16.6
2023-01-19T16:36:20.617Z,15.8
2023-01-19T16:38:02.387Z,14.6
2023-01-19T16:40:02.430Z,14.8
2023-01-19T16:42:03.138Z,16.0
2023-01-19T16:44:03.626Z,14.4
2023-01-19T16:46:04.152Z,15.5
2023-01-19T16:48:02.707Z,14.6
2023-01-19T16:50:02.377Z,15.1
2023-01-19T16:52:03.429Z,15.5
2023-01-19T16:54:03.197Z,15.3
2023-01-19T16:56:06.040Z,15.3
2023-01-19T16:58:02.316Z,15.1
2023-01-19T17:00:04.313Z,15.5
2023-01-19T17:02:03.173Z,15.1
2023-01-19T17:04:04.345Z,15.5
2023-01-19T17:06:02.395Z,14.8
2023-01-19T17:08:03.307Z,14.6
2023-01-19T17:10:02.968Z,15.0
2023-01-19T17:12:02.772Z,15.0
2023-01-19T17:14:04.278Z,14.5
2023-01-19T17:16:03.758Z,13.9
2023-01-19T17:18:02.520Z,14.2
2023-01-19T17:20:03.110Z,13.1
2023-01-19T17:22:02.373Z,14.4
2023-01-19T17:24:03.402Z,14.1
2023-01-19T17:26:03.894Z,13.3
2023-01-19T17:28:02.482Z,12.9
2023-01-19T17:30:02.424Z,12.0
2023-01-19T17:32:02.521Z,10.8
2023-01-19T17:34:03.006Z,11.5
2023-01-19T17:36:04.396Z,10.7
2023-01-19T17:38:02.409Z,9.3
2023-01-19T17:40:02.378Z,10.2
2023-01-19T17:42:02.348Z,12.0
2023-01-19T17:44:04.868Z,8.6
2023-01-19T17:46:02.968Z,7.7
2023-01-19T17:48:02.882Z,7.8
2023-01-19T17:50:02.354Z,6.8
2023-01-19T17:52:03.060Z,9.9
2023-01-19T17:54:03.757Z,8.4
2023-01-19T17:56:05.463Z,9.9
2023-01-19T17:58:03.822Z,11.0
2023-01-19T18:00:03.113Z,8.0
2023-01-19T18:02:02.986Z,11.9
2023-01-19T18:04:02.550Z,8.8
2023-01-19T18:06:02.997Z,17.9
2023-01-19T18:08:02.543Z,17.9
2023-01-19T18:10:02.946Z,85.8
2023-01-19T18:12:02.793Z,98.5
2023-01-19T18:14:03.039Z,89.7
2023-01-19T18:16:04.892Z,63.1
2023-01-19T18:18:02.476Z,15.1
2023-01-19T18:20:02.520Z,22.3
2023-01-19T18:22:03.083Z,16.2
2023-01-19T18:24:04.830Z,14.9
2023-01-19T18:26:04.853Z,15.6
2023-01-19T18:28:02.340Z,17.6
2023-01-19T18:30:03.089Z,14.5
2023-01-19T18:32:02.995Z,15.0
2023-01-19T18:34:03.012Z,12.2
2023-01-19T18:36:04.001Z,10.7
2023-01-19T18:38:02.387Z,12.4
2023-01-19T18:40:04.158Z,8.0
2023-01-19T18:42:02.964Z,7.8
2023-01-19T18:44:02.366Z,4.9
2023-01-19T18:46:03.274Z,7.9
2023-01-19T18:48:03.110Z,6.2
2023-01-19T18:50:02.335Z,6.7
2023-01-19T18:52:03.460Z,7.5
2023-01-19T18:54:03.248Z,6.2
2023-01-19T18:56:03.838Z,7.5
2023-01-19T18:58:03.801Z,6.5
2023-01-19T19:00:03.389Z,6.2
2023-01-19T19:02:04.696Z,4.7
2023-01-19T19:04:03.314Z,6.1
2023-01-19T19:06:04.068Z,5.8
2023-01-19T19:08:02.995Z,6.2
2023-01-19T19:10:02.371Z,6.4
2023-01-19T19:12:03.327Z,7.9
2023-01-19T19:14:03.795Z,16.2
2023-01-19T19:16:05.743Z,7.0
2023-01-19T19:18:02.926Z,9.5
2023-01-19T19:20:02.664Z,16.0
2023-01-19T19:22:02.322Z,16.8
2023-01-19T19:24:02.647Z,15.2
2023-01-19T19:26:04.385Z,14.0
2023-01-19T19:28:03.296Z,14.7
2023-01-19T19:30:02.384Z,12.7
2023-01-19T19:32:02.329Z,12.9
2023-01-19T19:34:02.329Z,9.8
2023-01-19T19:36:03.527Z,13.7
2023-01-19T19:38:02.450Z,16.4
2023-01-19T19:40:03.432Z,13.4
2023-01-19T19:42:02.407Z,11.0
2023-01-19T19:44:02.309Z,11.2
2023-01-19T19:46:04.303Z,10.4
2023-01-19T19:48:02.766Z,8.9
2023-01-19T19:50:03.331Z,9.2
2023-01-19T19:52:02.372Z,8.2
2023-01-19T19:54:02.469Z,9.3
2023-01-19T19:56:05.163Z,11.4
2023-01-19T19:58:02.347Z,8.4
2023-01-19T20:00:04.821Z,7.8
2023-01-19T20:02:02.706Z,12.3
2023-01-19T20:04:08.217Z,8.6
2023-01-19T20:06:05.149Z,10.4
2023-01-19T20:08:02.450Z,11.0
2023-01-19T20:10:02.348Z,9.4
2023-01-19T20:12:02.760Z,8.3
2023-01-19T20:14:06.220Z,8.6
2023-01-19T20:16:04.449Z,8.4
2023-01-19T20:18:03.213Z,8.8
2023-01-19T20:20:04.029Z,12.9
2023-01-19T20:22:02.337Z,7.9
2023-01-19T20:24:05.601Z,8.6
2023-01-19T20:26:04.891Z,8.3
2023-01-19T20:28:02.405Z,9.4
2023-01-19T20:30:02.621Z,9.0
2023-01-19T20:32:02.393Z,7.9
2023-01-19T20:34:05.234Z,8.7
2023-01-19T20:36:03.005Z,9.1
2023-01-19T20:38:03.002Z,10.0
2023-01-19T20:40:02.384Z,7.8
2023-01-19T20:42:02.444Z,9.1
2023-01-19T20:44:02.328Z,7.4
2023-01-19T20:46:05.359Z,9.4
2023-01-19T20:48:02.576Z,10.1
2023-01-19T20:50:03.177Z,11.0
2023-01-19T20:52:03.393Z,9.7
2023-01-19T20:54:02.482Z,8.8
2023-01-19T20:56:06.078Z,10.9
2023-01-19T20:58:03.497Z,9.4
2023-01-19T21:00:03.002Z,9.6
2023-01-19T21:02:03.139Z,11.4
2023-01-19T21:04:03.097Z,10.3
2023-01-19T21:06:02.414Z,10.4
2023-01-19T21:08:03.262Z,9.9
2023-01-19T21:10:02.610Z,8.3
2023-01-19T21:12:02.571Z,9.8
2023-01-19T21:14:03.036Z,8.6
2023-01-19T21:16:03.352Z,9.1
2023-01-19T21:18:03.011Z,7.8
2023-01-19T21:20:03.269Z,10.0
2023-01-19T21:22:03.033Z,5.1
2023-01-19T21:24:03.903Z,8.3
2023-01-19T21:26:02.460Z,9.6
2023-01-19T21:28:02.345Z,7.0
2023-01-19T21:30:02.407Z,9.1
2023-01-19T21:32:02.691Z,8.2
2023-01-19T21:34:02.377Z,9.4
2023-01-19T21:36:03.173Z,11.5
2023-01-19T21:38:02.554Z,7.6
2023-01-19T21:40:02.924Z,8.3
2023-01-19T21:42:02.368Z,7.6
2023-01-19T21:44:03.184Z,6.8
2023-01-19T21:46:09.861Z,5.3
2023-01-19T21:48:02.580Z,7.1
2023-01-19T21:50:03.076Z,9.5
2023-01-19T21:52:02.919Z,5.9
2023-01-19T21:54:04.116Z,8.3
2023-01-19T21:56:02.431Z,9.5
2023-01-19T21:58:02.327Z,9.2
2023-01-19T22:00:02.691Z,6.8
2023-01-19T22:02:02.536Z,7.4
2023-01-19T22:04:03.063Z,8.5
2023-01-19T22:06:05.401Z,8.0
2023-01-19T22:08:03.619Z,9.3
2023-01-19T22:10:03.251Z,9.1
2023-01-19T22:12:03.141Z,8.2
2023-01-19T22:14:02.374Z,7.2
2023-01-19T22:16:04.943Z,7.6
2023-01-19T22:18:02.886Z,7.5
2023-01-19T22:20:03.064Z,6.5
2023-01-19T22:22:02.397Z,7.2
2023-01-19T22:24:04.594Z,6.5
2023-01-19T22:26:03.276Z,6.8
2023-01-19T22:28:02.398Z,6.8
2023-01-19T22:30:02.578Z,5.2
2023-01-19T22:32:02.330Z,9.6
2023-01-19T22:34:03.072Z,7.2
2023-01-19T22:36:12.904Z,7.0
2023-01-19T22:38:02.718Z,7.0
2023-01-19T22:40:02.709Z,6.6
2023-01-19T22:42:02.589Z,8.2
2023-01-19T22:44:04.884Z,7.4
2023-01-19T22:46:04.097Z,5.7
2023-01-19T22:48:02.553Z,7.7
2023-01-19T22:50:02.468Z,7.1
2023-01-19T22:52:02.560Z,6.4
2023-01-19T22:54:03.939Z,7.7
2023-01-19T22:56:11.545Z,6.5
2023-01-19T22:58:02.343Z,4.9
2023-01-19T23:00:06.360Z,8.6
2023-01-19T23:02:02.499Z,6.8
2023-01-19T23:04:04.361Z,10.2
2023-01-19T23:06:05.647Z,9.8
2023-01-19T23:08:02.939Z,10.0
2023-01-19T23:10:02.354Z,8.4
2023-01-19T23:12:03.266Z,8.6
2023-01-19T23:14:03.647Z,9.3
2023-01-19T23:16:03.096Z,9.5
2023-01-19T23:18:02.427Z,8.1
2023-01-19T23:20:02.461Z,9.9
2023-01-19T23:22:02.344Z,9.1
2023-01-19T23:24:04.331Z,11.9
2023-01-19T23:26:04.243Z,12.7
2023-01-19T23:28:02.418Z,8.6
2023-01-19T23:30:03.259Z,8.6
2023-01-19T23:32:03.264Z,9.3
2023-01-19T23:34:05.468Z,9.8
2023-01-19T23:36:02.555Z,6.8
2023-01-19T23:38:04.083Z,8.0
2023-01-19T23:40:02.378Z,8.5
2023-01-19T23:42:03.222Z,8.2
2023-01-19T23:44:03.122Z,10.7
2023-01-19T23:46:05.652Z,11.2
2023-01-19T23:48:03.452Z,6.3
2023-01-19T23:50:03.939Z,7.9
2023-01-19T23:52:02.488Z,8.3
2023-01-19T23:54:03.499Z,7.1
2023-01-19T23:56:10.364Z,9.8
2023-01-19T23:58:02.415Z,8.0
